Home > Products > Valid Products > TAF

000
FTUS46 KMTR 061720
TAFSJC
TAF
KSJC 061720Z 0618/0718 29005KT P6SM FEW018 FEW200
     FM062000 30013G18KT P6SM FEW020 SCT250
     FM070400 30005KT P6SM SCT020
     FM070700 VRB03KT P6SM OVC015
     FM071700 32006KT P6SM FEW015=



000
FTUS46 KMTR 061720
TAFOAK
TAF
KOAK 061720Z 0618/0724 28010KT P6SM FEW016 FEW020 FEW250
     FM062100 28016G21KT P6SM FEW020 SCT250
     FM070300 28013KT P6SM SCT015
     FM070500 28011KT P6SM BKN014
     FM070800 28008KT P6SM OVC010
     FM071800 28010KT P6SM FEW010 SCT015
     FM072100 28015KT P6SM FEW012 FEW016=



000
FTUS46 KMTR 061720
TAFLVK
TAF
KLVK 061720Z 0618/0718 26008KT P6SM FEW250
     FM062000 29016G21KT P6SM FEW250
     FM070300 29011KT P6SM FEW250
     FM070900 29008KT P6SM BKN015
     FM071200 29008KT P6SM OVC014
     FM071600 28008KT P6SM FEW018=



000
FTUS46 KMTR 061720
TAFSNS
TAF
KSNS 061720Z 0618/0718 30009KT P6SM FEW015
     FM062000 29012KT P6SM FEW015
     FM070100 27009KT P6SM BKN010
     FM070300 27006KT P6SM OVC008
     FM071730 30006KT P6SM SCT015=



000
FTUS46 KMTR 061720
TAFMRY
TAF
KMRY 061720Z 0618/0718 24004KT P6SM SCT010 BKN015
     FM061900 28006KT P6SM FEW010 SCT015
     FM062000 29011G16KT P6SM FEW015
     FM070100 25005KT P6SM BKN010
     FM070200 24004KT P6SM OVC008
     FM070700 VRB03KT 6SM BR OVC005=



000
FTUS46 KMTR 061720
TAFSFO
TAF
KSFO 061720Z 0618/0724 27011KT P6SM FEW018 FEW250
     FM062100 26016G21KT P6SM FEW020 SCT250
     FM070500 26012KT P6SM BKN015
     FM070800 26008KT P6SM OVC010
     FM071800 28010KT P6SM FEW010 SCT015
     FM072100 27016KT P6SM FEW012 FEW016=



000
FTUS46 KMTR 061720
TAFSTS
TAF
KSTS 061720Z 0618/0718 19008KT P6SM SCT018 SCT250
     FM062000 19012KT P6SM SCT250
     FM070300 15006KT P6SM FEW250
     FM070600 VRB03KT P6SM BKN010
     FM071000 00000KT P6SM OVC008
     FM071700 VRB02KT P6SM SCT012=



000
FTUS46 KMTR 061509 AAA
TAFSFO
TAF AMD
KSFO 061509Z 0615/0718 26007KT P6SM FEW012 BKN016
     FM061730 21008KT P6SM SCT012 SCT250
     FM062000 28006KT P6SM FEW012 SCT250
     FM062100 25016G21KT P6SM FEW012 SCT250
     FM070400 26012KT P6SM BKN015
     FM070800 26008KT P6SM OVC010=



000
FTUS46 KMTR 061130
TAFOAK
TAF
KOAK 061130Z 0612/0718 28010KT P6SM OVC012
     FM061900 28008KT P6SM SCT014
     FM062100 28016G21KT P6SM FEW020 SCT250
     FM070200 28012KT P6SM SCT015
     FM070400 28010KT P6SM BKN015
     FM070800 28008KT P6SM OVC010=



000
FTUS46 KMTR 061130
TAFSTS
TAF
KSTS 061130Z 0612/0712 VRB03KT P6SM OVC009
     FM061800 19008KT P6SM SCT015
     FM062000 19012KT P6SM FEW250
     FM070300 15006KT P6SM FEW250
     FM070600 VRB03KT P6SM OVC008=



000
FTUS46 KMTR 061130
TAFSNS
TAF
KSNS 061130Z 0612/0712 29005KT P6SM OVC009
     FM061800 29008KT P6SM SCT012
     FM062000 29012KT P6SM SCT250
     FM070200 27009KT P6SM BKN010
     FM070600 27006KT P6SM OVC008=



000
FTUS46 KMTR 061130
TAFLVK
TAF
KLVK 061130Z 0612/0712 26007KT P6SM BKN012
     FM061600 26008KT P6SM FEW250
     FM062000 29016KT P6SM FEW250
     FM070300 29009KT P6SM FEW250
     FM070900 29007KT P6SM BKN015=



000
FTUS46 KMTR 061130
TAFMRY
TAF
KMRY 061130Z 0612/0712 24004KT P6SM OVC008
     FM062000 29009KT P6SM SCT012
     FM070100 25005KT P6SM BKN009
     FM070400 24004KT P6SM OVC008=



000
FTUS46 KMTR 061130
TAFSFO
TAF
KSFO 061130Z 0612/0718 24007KT P6SM OVC012
     FM061830 21008KT P6SM SCT012 SCT250
     FM062000 28006KT P6SM FEW012 SCT250
     FM062100 25016G21KT P6SM FEW012 SCT250
     FM070400 26012KT P6SM BKN015
     FM070800 26008KT P6SM OVC010=



000
FTUS46 KMTR 061130
TAFOAK
TAF
KOAK 061130Z 0612/0718 28010KT P6SM OVC012
     FM061900 28008KT P6SM SCT014
     FM062100 28016G21KT P6SM FEW020 SCT250
     FM070200 28012KT P6SM SCT015
     FM070400 28010KT P6SM BKN015
     FM070800 28008KT P6SM OVC010=



000
FTUS46 KMTR 061130
TAFSJC
TAF
KSJC 061130Z 0612/0712 VRB03KT P6SM OVC015
     FM061800 29005KT P6SM SCT015
     FM062000 30012KT P6SM SCT250
     FM070400 30005KT P6SM SCT020
     FM070600 VRB03KT P6SM OVC015=



000
FTUS46 KMTR 061130
TAFSFO
TAF
KSFO 061130Z 0612/0718 24007KT P6SM OVC012
     FM061830 21008KT P6SM SCT012 SCT250
     FM062000 28006KT P6SM FEW012 SCT250
     FM062100 25016G21KT P6SM FEW012 SCT250
     FM070400 26012KT P6SM BKN015
     FM070800 26008KT P6SM OVC010=



000
FTUS46 KMTR 061130
TAFSTS
TAF
KSTS 061130Z 0612/0712 VRB03KT P6SM OVC009
     FM061800 19008KT P6SM SCT015
     FM062000 19012KT P6SM FEW250
     FM070300 15006KT P6SM FEW250
     FM070600 VRB03KT P6SM OVC008=



000
FTUS46 KMTR 061130
TAFSNS
TAF
KSNS 061130Z 0612/0712 29005KT P6SM OVC009
     FM061800 29008KT P6SM SCT012
     FM062000 29012KT P6SM SCT250
     FM070200 27009KT P6SM BKN010
     FM070600 27006KT P6SM OVC008=



000
FTUS46 KMTR 061130
TAFMRY
TAF
KMRY 061130Z 0612/0712 24004KT P6SM OVC008
     FM062000 29009KT P6SM SCT012
     FM070100 25005KT P6SM BKN009
     FM070400 24004KT P6SM OVC008=



000
FTUS46 KMTR 061130
TAFSJC
TAF
KSJC 061130Z 0612/0712 VRB03KT P6SM OVC015
     FM061800 29005KT P6SM SCT015
     FM062000 30012KT P6SM SCT250
     FM070400 30005KT P6SM SCT020
     FM070600 VRB03KT P6SM OVC015=



000
FTUS46 KMTR 061130
TAFLVK
TAF
KLVK 061130Z 0612/0712 26007KT P6SM BKN012
     FM061600 26008KT P6SM FEW250
     FM062000 29016KT P6SM FEW250
     FM070300 29009KT P6SM FEW250
     FM070900 29007KT P6SM BKN015=



000
FTUS46 KMTR 060853 AAA
TAFSFO
TAF AMD
KSFO 060853Z 0609/0712 24007KT P6SM OVC012
     FM061700 21008KT P6SM SCT012 SCT250
     FM061900 28006KT P6SM FEW012
     FM062100 25016G21KT P6SM FEW012 SCT250
     FM070400 26012KT P6SM FEW010 SCT250
     FM070800 26008KT P6SM BKN012=



000
FTUS46 KMTR 060520
TAFOAK
TAF
KOAK 060520Z 0606/0712 28010KT P6SM OVC012
     FM061700 28008KT P6SM FEW014 SCT250
     FM062100 28016G21KT P6SM FEW020 SCT250
     FM070300 28012KT P6SM FEW020 SCT250=



000
FTUS46 KMTR 060520
TAFSJC
TAF
KSJC 060520Z 0606/0706 30007KT P6SM FEW250
     FM060700 VRB03KT P6SM SCT015 BKN250
      TEMPO 0610/0614 BKN015 OVC250
     FM061400 15004KT P6SM BKN015 OVC250
     FM061800 24011KT P6SM FEW030 SCT250
     FM070300 VRB04KT P6SM FEW030 SCT250=



000
FTUS46 KMTR 060520
TAFSTS
TAF
KSTS 060520Z 0606/0706 15007KT P6SM SCT020 BKN250
      TEMPO 0606/0608 BKN010
     FM060800 VRB03KT P6SM OVC009
      TEMPO 0612/0616 1SM BR OVC004
     FM061800 19008KT P6SM FEW015 SCT250
     FM062000 19012KT P6SM FEW250
     FM070300 VRB03KT P6SM FEW250=



000
FTUS46 KMTR 060520
TAFSFO
TAF
KSFO 060520Z 0606/0712 24010KT P6SM SCT010 BKN250
      TEMPO 0606/0608 BKN010 OVC250
     FM060800 24007KT P6SM OVC010
     FM061700 21008KT P6SM FEW012 SCT250
     FM062100 25016G21KT P6SM FEW012 SCT250
     FM070400 26016KT P6SM FEW010 SCT250=



000
FTUS46 KMTR 060520
TAFLVK
TAF
KLVK 060520Z 0606/0706 27008KT P6SM FEW250
     FM060800 26007KT P6SM SCT012 BKN250
     FM061600 26008KT P6SM FEW250
     FM062000 29016KT P6SM FEW250
     FM070300 29009KT P6SM FEW250=



000
FTUS46 KMTR 060520
TAFSNS
TAF
KSNS 060520Z 0606/0706 29007KT P6SM OVC010
     FM061730 27014KT P6SM FEW012 SCT250
     FM070200 27009KT P6SM BKN009=



000
FTUS46 KMTR 060520
TAFMRY
TAF
KMRY 060520Z 0606/0706 24004KT P6SM OVC009
     FM061730 29009KT P6SM FEW012 SCT250
     FM070300 25005KT P6SM BKN009=



000
FTUS46 KMTR 060413 AAB
TAFSFO
TAF AMD
KSFO 060413Z 0604/0706 24010KT P6SM SCT010 BKN250
      TEMPO 0604/0608 BKN010 OVC250
     FM060800 24007KT P6SM OVC010
     FM061700 21008KT P6SM FEW012 SCT250
     FM062100 25016G21KT P6SM FEW012 SCT250
     FM070400 26016KT P6SM FEW010 SCT250=



000
FTUS46 KMTR 060345 AAB
TAFMRY
TAF AMD
KMRY 060345Z 0604/0624 24004KT P6SM OVC009
     FM061730 29009KT P6SM FEW012 SCT250=



000
FTUS46 KMTR 060345 AAB
TAFMRY
TAF AMD
KMRY 060345Z 0604/0624 24004KT P6SM OVC009
     FM061730 29009KT P6SM FEW012 SCT250=



000
FTUS46 KMTR 060319 AAB
TAFSNS
TAF AMD
KSNS 060319Z 0603/0624 29007KT P6SM OVC010
     FM061730 27014KT P6SM FEW012 SCT250=



000
FTUS46 KMTR 060312 AAA
TAFSFO
TAF AMD
KSFO 060312Z 0603/0706 24012KT P6SM SCT010 BKN250
      TEMPO 0607/0609 BKN010 OVC250
     FM060900 24007KT P6SM OVC010
     FM061700 21008KT P6SM FEW012 SCT250
     FM062100 25016G21KT P6SM FEW012 SCT250
     FM070400 26016KT P6SM FEW010 SCT250=



000
FTUS46 KMTR 060212 AAA
TAFOAK
TAF AMD
KOAK 060212Z 0602/0706 28016KT P6SM SCT012 BKN250
      TEMPO 0602/0605 BKN012 OVC250
     FM060500 28010KT P6SM OVC012
     FM061700 28008KT P6SM FEW014 SCT250
     FM062100 28016G21KT P6SM FEW020 SCT250
     FM070300 28012KT P6SM FEW020 SCT250=



000
FTUS46 KMTR 060127 AAA
TAFSNS
TAF AMD
KSNS 060127Z 0601/0624 29011G16KT P6SM SCT012 BKN250
      TEMPO 0601/0604 BKN012
     FM060400 29009KT P6SM SCT012 BKN250
     FM060600 29005KT P6SM OVC010
     FM061730 27014KT P6SM FEW012 SCT250=



000
FTUS46 KMTR 060126 AAA
TAFMRY
TAF AMD
KMRY 060126Z 0601/0624 24016KT P6SM SCT012 SCT250
      TEMPO 0601/0603 BKN012
     FM060300 25010KT P6SM SCT012 BKN250
     FM060700 24004KT P6SM OVC010
     FM061730 29009KT P6SM FEW012 SCT250=



000
FTUS46 KMTR 052353
TAFLVK
TAF
KLVK 052353Z 0600/0624 29016G22KT P6SM FEW250
     FM060400 27008KT P6SM FEW250
     FM060800 26007KT P6SM SCT012 BKN250
     FM061600 26008KT P6SM FEW250
     FM062000 29016KT P6SM FEW250=



000
FTUS46 KMTR 052353
TAFSFO
TAF
KSFO 052353Z 0600/0706 25015G21KT P6SM FEW010 SCT250
     FM060400 24012KT P6SM FEW010 SCT250
      TEMPO 0607/0609 BKN010 OVC250
     FM060900 24007KT P6SM OVC010
     FM061700 21008KT P6SM FEW012 SCT250
     FM062100 25016G21KT P6SM FEW012 SCT250
     FM070400 26016KT P6SM FEW010 SCT250=



000
FTUS46 KMTR 052353
TAFSNS
TAF
KSNS 052353Z 0600/0624 29011G16KT P6SM FEW250
     FM060200 29009KT P6SM SCT012 BKN250
     FM060600 29005KT P6SM OVC010
     FM061730 27014KT P6SM FEW012 SCT250=



000
FTUS46 KMTR 052353
TAFSTS
TAF
KSTS 052353Z 0600/0624 18012KT P6SM FEW030 SCT250
     FM060400 15007KT P6SM SCT020 BKN250
      TEMPO 0604/0607 BKN010
     FM060700 VRB03KT P6SM OVC009
      TEMPO 0612/0616 1SM BR OVC004
     FM061800 19008KT P6SM FEW015 SCT250
     FM062000 19012KT P6SM FEW250=



000
FTUS46 KMTR 052353
TAFMRY
TAF
KMRY 052353Z 0600/0624 24016KT P6SM FEW250
     FM060300 25010KT P6SM SCT012 BKN250
     FM060700 24004KT P6SM OVC010
     FM061730 29009KT P6SM FEW012 SCT250=



000
FTUS46 KMTR 052353
TAFOAK
TAF
KOAK 052353Z 0600/0706 28016G22KT P6SM FEW012 SCT250
     FM060300 28013KT P6SM FEW012 FEW250
      TEMPO 0604/0606 BKN012 OVC250
     FM060600 28010KT P6SM OVC012
     FM061700 28008KT P6SM FEW014 SCT250
     FM062100 28016G21KT P6SM FEW020 SCT250
     FM070300 28012KT P6SM FEW020 SCT250=



000
FTUS46 KMTR 052353
TAFSJC
TAF
KSJC 052353Z 0600/0624 31013G18KT P6SM FEW030 SCT250
     FM060300 30007KT P6SM FEW250
     FM060700 VRB03KT P6SM SCT015 BKN250
      TEMPO 0610/0614 BKN015 OVC250
     FM061400 15004KT P6SM BKN015 OVC250
     FM061800 24011KT P6SM FEW030 SCT250=



000
FTUS46 KMTR 052353
TAFLVK
TAF
KLVK 052353Z 0600/0624 29016G22KT P6SM FEW250
     FM060400 27008KT P6SM FEW250
     FM060800 26007KT P6SM SCT012 BKN250
     FM061600 26008KT P6SM FEW250
     FM062000 29016KT P6SM FEW250=



000
FTUS46 KMTR 052353
TAFMRY
TAF
KMRY 052353Z 0600/0624 24016KT P6SM FEW250
     FM060300 25010KT P6SM SCT012 BKN250
     FM060700 24004KT P6SM OVC010
     FM061730 29009KT P6SM FEW012 SCT250=



000
FTUS46 KMTR 052353
TAFSTS
TAF
KSTS 052353Z 0600/0624 18012KT P6SM FEW030 SCT250
     FM060400 15007KT P6SM SCT020 BKN250
      TEMPO 0604/0607 BKN010
     FM060700 VRB03KT P6SM OVC009
      TEMPO 0612/0616 1SM BR OVC004
     FM061800 19008KT P6SM FEW015 SCT250
     FM062000 19012KT P6SM FEW250=



000
FTUS46 KMTR 052353
TAFSFO
TAF
KSFO 052353Z 0600/0706 25015G21KT P6SM FEW010 SCT250
     FM060400 24012KT P6SM FEW010 SCT250
      TEMPO 0607/0609 BKN010 OVC250
     FM060900 24007KT P6SM OVC010
     FM061700 21008KT P6SM FEW012 SCT250
     FM062100 25016G21KT P6SM FEW012 SCT250
     FM070400 26016KT P6SM FEW010 SCT250=



000
FTUS46 KMTR 052353
TAFSJC
TAF
KSJC 052353Z 0600/0624 31013G18KT P6SM FEW030 SCT250
     FM060300 30007KT P6SM FEW250
     FM060700 VRB03KT P6SM SCT015 BKN250
      TEMPO 0610/0614 BKN015 OVC250
     FM061400 15004KT P6SM BKN015 OVC250
     FM061800 24011KT P6SM FEW030 SCT250=



000
FTUS46 KMTR 052353
TAFOAK
TAF
KOAK 052353Z 0600/0706 28016G22KT P6SM FEW012 SCT250
     FM060300 28013KT P6SM FEW012 FEW250
      TEMPO 0604/0606 BKN012 OVC250
     FM060600 28010KT P6SM OVC012
     FM061700 28008KT P6SM FEW014 SCT250
     FM062100 28016G21KT P6SM FEW020 SCT250
     FM070300 28012KT P6SM FEW020 SCT250=



000
FTUS46 KMTR 052353
TAFSNS
TAF
KSNS 052353Z 0600/0624 29011G16KT P6SM FEW250
     FM060200 29009KT P6SM SCT012 BKN250
     FM060600 29005KT P6SM OVC010
     FM061730 27014KT P6SM FEW012 SCT250=



000
FTUS46 KMTR 052059 AAA
TAFSFO
TAF AMD
KSFO 052059Z 0521/0624 24010KT P6SM FEW010 SCT200
     FM052200 25015G21KT P6SM FEW010 SCT250
     FM060500 27009KT P6SM BKN010
     FM060700 28007KT P6SM OVC010
     FM061700 27008KT P6SM FEW010
     FM062100 27016G22KT P6SM FEW010=



000
FTUS46 KMTR 052059 AAA
TAFSFO
TAF AMD
KSFO 052059Z 0521/0624 24010KT P6SM FEW010 SCT200
     FM052200 25015G21KT P6SM FEW010 SCT250
     FM060500 27009KT P6SM BKN010
     FM060700 28007KT P6SM OVC010
     FM061700 27008KT P6SM FEW010
     FM062100 27016G22KT P6SM FEW010=



000
FTUS46 KMTR 051750 CCA
TAFMRY
TAF COR
KMRY 051750Z 0518/0618 VRB04KT P6SM SCT017
     FM051900 27011G16KT P6SM FEW017 FEW200
     FM060100 25010G15KT P6SM BKN012
     FM060300 24008KT P6SM OVC010
     FM060600 VRB03KT P6SM OVC007
     FM061730 VRB04KT P6SM FEW008 SCT012=



000
FTUS46 KMTR 051720
TAFSNS
TAF
KSNS 051720Z 0518/0618 29006KT P6SM SCT012
     FM051900 29011G16KT P6SM FEW012 FEW250
     FM060200 29009KT P6SM BKN010
     FM060400 29005KT P6SM OVC008
     FM061730 VRB04KT P6SM FEW008 SCT012=



000
FTUS46 KMTR 051720
TAFMRY
TAF
KMRY 051720Z 0518/0618 VRB04KT P6SM BKN017
     FM051900 27011G16KT P6SM FEW017 FEW200
     FM060100 25010G15KT P6SM BKN012
     FM060300 24008KT P6SM OVC010
     FM060600 VRB03KT P6SM OVC007
     FM061730 VRB04KT P6SM FEW008 SCT012=



000
FTUS46 KMTR 051720
TAFSNS
TAF
KSNS 051720Z 0518/0618 29006KT P6SM SCT012
     FM051900 29011G16KT P6SM FEW012 FEW250
     FM060200 29009KT P6SM BKN010
     FM060400 29005KT P6SM OVC008
     FM061730 VRB04KT P6SM FEW008 SCT012=



000
FTUS46 KMTR 051720
TAFOAK
TAF
KOAK 051720Z 0518/0624 VRB05KT P6SM FEW008 FEW015 SCT200
     FM051900 28016KT P6SM FEW010 FEW015 SCT250
     FM060300 28013KT P6SM FEW010 FEW250
     FM060500 28010KT P6SM BKN012
     FM060700 28009KT P6SM OVC008
     FM061700 28008KT P6SM FEW008
     FM062100 28016KT P6SM FEW010=



000
FTUS46 KMTR 051720
TAFLVK
TAF
KLVK 051720Z 0518/0618 29011KT P6SM FEW250
     FM052100 29016G24KT P6SM FEW250
     FM060400 27008KT P6SM SKC
     FM060800 26007KT P6SM BKN012
     FM061600 26008KT P6SM FEW015=



000
FTUS46 KMTR 051720
TAFSJC
TAF
KSJC 051720Z 0518/0618 VRB06KT P6SM FEW020 FEW200
     FM052000 31013G18KT P6SM FEW250
     FM060300 30007KT P6SM SKC
     FM060700 27006KT P6SM BKN015
     FM061000 VRB04KT P6SM OVC015
     FM061600 VRB05KT P6SM FEW015=



000
FTUS46 KMTR 051720
TAFSFO
TAF
KSFO 051720Z 0518/0624 VRB06KT P6SM FEW010 SCT020 SCT200
     FM051900 29010KT P6SM FEW010 FEW020 SCT250
     FM052200 28015G21KT P6SM FEW010 FEW250
     FM060500 28009KT P6SM BKN010
     FM060700 28007KT P6SM OVC010
     FM061700 27008KT P6SM FEW010
     FM062100 27016G22KT P6SM FEW010=



000
FTUS46 KMTR 051720
TAFSTS
TAF
KSTS 051720Z 0518/0618 19005KT P6SM FEW010
     FM051900 18011KT P6SM FEW250
     FM060400 15005KT P6SM SKC
     FM060800 VRB03KT P6SM BKN010
     FM061200 VRB02KT P6SM OVC008
     FM061700 VRB03KT P6SM SCT010=



000
FTUS46 KMTR 051501 AAA
TAFSFO
TAF AMD
KSFO 051501Z 0515/0618 29006KT P6SM FEW008 FEW200
     FM051900 29010KT P6SM FEW008 FEW200
     FM052200 28015G24KT P6SM FEW008 FEW200
     FM060400 28012KT P6SM FEW012
     FM061000 28008KT P6SM BKN012=



000
FTUS46 KMTR 051501 AAA
TAFSFO
TAF AMD
KSFO 051501Z 0515/0618 29006KT P6SM FEW008 FEW200
     FM051900 29010KT P6SM FEW008 FEW200
     FM052200 28015G24KT P6SM FEW008 FEW200
     FM060400 28012KT P6SM FEW012
     FM061000 28008KT P6SM BKN012=



000
FTUS46 KMTR 051351 AAA
TAFSJC
TAF AMD
KSJC 051351Z 0514/0612 VRB04KT P6SM BKN015
     FM051500 VRB03KT P6SM SCT020
     FM051700 31005KT P6SM SKC
     FM052000 31012KT P6SM SKC
     FM060300 30007KT P6SM SKC=



000
FTUS46 KMTR 051120
TAFSTS
TAF
KSTS 051120Z 0512/0612 VRB03KT P6SM OVC008
     FM051700 19005KT P6SM SCT010
     FM051900 18010KT P6SM SKC
     FM060400 15005KT P6SM FEW250
     FM061000 VRB03KT P6SM BKN010=



000
FTUS46 KMTR 051120
TAFSNS
TAF
KSNS 051120Z 0512/0612 VRB03KT P6SM OVC007
     FM051700 29005KT P6SM SCT012
     FM051900 29010KT P6SM SKC
     FM060200 29007KT P6SM BKN010
     FM060500 29005KT P6SM OVC008=



000
FTUS46 KMTR 051120
TAFSJC
TAF
KSJC 051120Z 0512/0612 VRB04KT P6SM OVC015
     FM051700 31004KT P6SM SCT020
     FM051900 31012KT P6SM SKC
     FM060300 30007KT P6SM SKC=



000
FTUS46 KMTR 051120
TAFMRY
TAF
KMRY 051120Z 0512/0612 24003KT P6SM OVC007
     FM051700 VRB04KT P6SM SCT009
     FM051900 29009KT P6SM SKC
     FM060300 24004KT P6SM BKN009
     FM060600 VRB03KT P6SM OVC007=



000
FTUS46 KMTR 051120
TAFLVK
TAF
KLVK 051120Z 0512/0612 27007KT P6SM BKN010
     FM051600 26012KT P6SM SKC
     FM060300 27007KT P6SM SKC=



000
FTUS46 KMTR 051120
TAFSFO
TAF
KSFO 051120Z 0512/0618 27005KT P6SM BKN012
     FM051700 29008KT P6SM FEW008 SCT012
     FM051900 29010KT P6SM FEW008
     FM052200 28015G24KT P6SM FEW008
     FM060400 28012KT P6SM FEW012
     FM061000 28008KT P6SM BKN012=



000
FTUS46 KMTR 051120
TAFOAK
TAF
KOAK 051120Z 0512/0618 29008KT P6SM OVC012
     FM051700 28006KT P6SM SCT015
     FM051900 28016KT P6SM FEW012
     FM060300 28009KT P6SM FEW010
     FM060600 28006KT P6SM BKN012
     FM061000 28005KT P6SM OVC010=



000
FTUS46 KMTR 050901 AAA
TAFSFO
TAF AMD
KSFO 050901Z 0509/0612 29006KT P6SM SCT012
     FM051000 27005KT P6SM BKN010
     FM051300 27006KT P6SM OVC008
     FM051700 29008KT P6SM FEW008 SCT010
     FM052200 28015G24KT P6SM FEW012
     FM060400 28012KT P6SM FEW012=



000
FTUS46 KMTR 050520
TAFMRY
TAF
KMRY 050520Z 0506/0606 24003KT 6SM BR OVC003
     FM051700 VRB04KT P6SM SCT007
     FM051800 29009KT P6SM FEW012
     FM060300 24004KT P6SM BKN009=



000
FTUS46 KMTR 050520
TAFSTS
TAF
KSTS 050520Z 0506/0606 18004KT P6SM SKC
      TEMPO 0507/0511 1/2SM FG VV002
     FM051100 VRB03KT 1/4SM FG VV001
     FM051730 18011KT P6SM FEW250
     FM060400 VRB03KT P6SM FEW250=



000
FTUS46 KMTR 050520
TAFOAK
TAF
KOAK 050520Z 0506/0612 29012KT P6SM SCT010
      TEMPO 0506/0510 BKN009
     FM051000 29008KT P6SM BKN007
     FM051700 28006KT P6SM SCT010
     FM052000 28017KT P6SM FEW012
     FM060300 28009KT P6SM FEW010=



000
FTUS46 KMTR 050520
TAFSFO
TAF
KSFO 050520Z 0506/0612 28015KT P6SM FEW010
     FM050800 27006KT P6SM BKN010
     FM051100 27006KT P6SM OVC008
     FM051700 29008KT P6SM FEW008 SCT010
     FM052200 28015G24KT P6SM FEW012
     FM060400 28012KT P6SM FEW012=



000
FTUS46 KMTR 050520
TAFSJC
TAF
KSJC 050520Z 0506/0606 30008KT P6SM SKC
     FM051000 VRB04KT P6SM SCT012
     FM051800 31012KT P6SM FEW020
     FM060300 30007KT P6SM FEW020=



000
FTUS46 KMTR 050520
TAFSNS
TAF
KSNS 050520Z 0506/0606 27009KT P6SM OVC009
     FM051200 VRB03KT 2SM BR OVC003
     FM051800 29009KT P6SM FEW012
     FM060300 29007KT P6SM BKN009=



000
FTUS46 KMTR 050520
TAFSTS
TAF
KSTS 050520Z 0506/0606 18004KT P6SM SKC
      TEMPO 0507/0511 1/2SM FG VV002
     FM051100 VRB03KT 1/4SM FG VV001
     FM051730 18011KT P6SM FEW250
     FM060400 VRB03KT P6SM FEW250=



000
FTUS46 KMTR 050520
TAFLVK
TAF
KLVK 050520Z 0506/0606 28007KT P6SM SKC
     FM051200 27007KT P6SM SCT010
     FM051730 26011KT P6SM SKC
     FM060300 27009KT P6SM SKC=



000
FTUS46 KMTR 050520
TAFMRY
TAF
KMRY 050520Z 0506/0606 24003KT 6SM BR OVC003
     FM051700 VRB04KT P6SM SCT007
     FM051800 29009KT P6SM FEW012
     FM060300 24004KT P6SM BKN009=



000
FTUS46 KMTR 050520
TAFSFO
TAF
KSFO 050520Z 0506/0612 28015KT P6SM FEW010
     FM050800 27006KT P6SM BKN010
     FM051100 27006KT P6SM OVC008
     FM051700 29008KT P6SM FEW008 SCT010
     FM052200 28015G24KT P6SM FEW012
     FM060400 28012KT P6SM FEW012=



000
FTUS46 KMTR 050520
TAFOAK
TAF
KOAK 050520Z 0506/0612 29012KT P6SM SCT010
      TEMPO 0506/0510 BKN009
     FM051000 29008KT P6SM BKN007
     FM051700 28006KT P6SM SCT010
     FM052000 28017KT P6SM FEW012
     FM060300 28009KT P6SM FEW010=



000
FTUS46 KMTR 050520
TAFSJC
TAF
KSJC 050520Z 0506/0606 30008KT P6SM SKC
     FM051000 VRB04KT P6SM SCT012
     FM051800 31012KT P6SM FEW020
     FM060300 30007KT P6SM FEW020=



000
FTUS46 KMTR 050520
TAFSNS
TAF
KSNS 050520Z 0506/0606 27009KT P6SM OVC009
     FM051200 VRB03KT 2SM BR OVC003
     FM051800 29009KT P6SM FEW012
     FM060300 29007KT P6SM BKN009=



000
FTUS46 KMTR 050520
TAFLVK
TAF
KLVK 050520Z 0506/0606 28007KT P6SM SKC
     FM051200 27007KT P6SM SCT010
     FM051730 26011KT P6SM SKC
     FM060300 27009KT P6SM SKC=



000
FTUS46 KMTR 050305 AAA
TAFSFO
TAF AMD
KSFO 050305Z 0503/0606 28015KT P6SM FEW010
     FM050800 27006KT P6SM BKN010
     FM051100 27006KT P6SM OVC008
     FM051700 29008KT P6SM FEW008 SCT010
     FM052200 28015G24KT P6SM FEW012
     FM060400 28012KT P6SM FEW012=



000
FTUS46 KMTR 050157 AAA
TAFMRY
TAF AMD
KMRY 050157Z 0502/0524 25004KT P6SM OVC007
     FM050600 24003KT 6SM BR OVC003
     FM051700 VRB04KT P6SM SCT007
     FM051800 29009KT P6SM FEW012=



000
FTUS46 KMTR 042323
TAFOAK
TAF
KOAK 042323Z 0500/0606 30015G20KT P6SM FEW012
     FM050400 29012KT P6SM SCT010
      TEMPO 0506/0510 BKN009
     FM051000 29008KT P6SM BKN007
     FM051700 28006KT P6SM SCT010
     FM052000 28017KT P6SM FEW012
     FM060300 28009KT P6SM FEW010=



000
FTUS46 KMTR 042323
TAFSNS
TAF
KSNS 042323Z 0500/0524 29017KT P6SM SCT012
      TEMPO 0500/0501 BKN012
     FM050100 27012KT P6SM OVC010
     FM050300 27009KT P6SM OVC009
     FM051200 VRB03KT 2SM BR OVC003
     FM051800 29009KT P6SM FEW012=



000
FTUS46 KMTR 042323
TAFSTS
TAF
KSTS 042323Z 0500/0524 19011KT P6SM FEW250
     FM050500 18004KT P6SM SKC
      TEMPO 0507/0511 1/2SM FG VV002
     FM051100 VRB03KT 1/4SM FG VV001
     FM051730 18011KT P6SM FEW250=



000
FTUS46 KMTR 042323
TAFLVK
TAF
KLVK 042323Z 0500/0524 28016KT P6SM SKC
     FM050400 28007KT P6SM SKC
     FM051200 27007KT P6SM SCT010
     FM051730 26011KT P6SM SKC=



000
FTUS46 KMTR 042323
TAFSFO
TAF
KSFO 042323Z 0500/0606 29017G27KT P6SM FEW008
     FM050400 28015KT P6SM FEW010
     FM050800 27006KT P6SM BKN010
     FM051100 27006KT P6SM OVC008
     FM051700 29008KT P6SM FEW008 SCT010
     FM052200 28015G24KT P6SM FEW012
     FM060400 28012KT P6SM FEW012=



000
FTUS46 KMTR 042323
TAFMRY
TAF
KMRY 042323Z 0500/0524 24011KT P6SM FEW010
      TEMPO 0500/0501 BKN010
     FM050100 25008KT P6SM SCT010
     FM050400 25004KT P6SM OVC007
     FM050600 24003KT 6SM BR OVC003
     FM051700 VRB04KT P6SM SCT007
     FM051800 29009KT P6SM FEW012=



000
FTUS46 KMTR 042323
TAFSJC
TAF
KSJC 042323Z 0500/0524 31013KT P6SM SKC
     FM050400 30008KT P6SM SKC
     FM051000 VRB04KT P6SM SCT012
     FM051800 31012KT P6SM FEW020=



000
FTUS46 KMTR 042042 AAA
TAFSFO
TAF AMD
KSFO 042042Z 0421/0524 30017G23KT P6SM FEW008
     FM050300 28015KT P6SM FEW010
     FM050800 27006KT P6SM BKN010
     FM051100 27006KT P6SM OVC008
     FM051700 29008KT P6SM FEW008 SCT010
     FM052100 28015KT P6SM FEW012=



000
FTUS46 KMTR 042040 AAA
TAFMRY
TAF AMD
KMRY 042040Z 0421/0518 25009KT P6SM FEW010
      TEMPO 0422/0501 BKN010
     FM050100 25008KT P6SM BKN009
     FM050400 25004KT P6SM OVC005
     FM051200 VRB02KT 2SM BR OVC003
     FM051700 VRB04KT P6SM SCT007=



000
FTUS46 KMTR 041720
TAFSTS
TAF
KSTS 041720Z 0418/0518 19003KT P6SM SKC
     FM042100 19011KT P6SM SKC
     FM050500 18005KT P6SM SKC
     FM050700 17003KT P6SM BKN010
     FM051000 17002KT P6SM OVC007
     FM051700 18003KT P6SM SCT012=



000
FTUS46 KMTR 041720
TAFMRY
TAF
KMRY 041720Z 0418/0518 VRB04KT P6SM FEW006
     FM041900 30007KT P6SM SKC
     FM042100 26009KT P6SM SKC
     FM050200 25008KT P6SM BKN009
     FM050500 25004KT P6SM OVC005
     FM051200 VRB02KT 2SM BR OVC003
     FM051700 VRB04KT P6SM SCT007=



000
FTUS46 KMTR 041720
TAFSNS
TAF
KSNS 041720Z 0418/0518 28005KT P6SM FEW010
     FM042100 29012KT P6SM SKC
     FM050200 27010KT P6SM OVC009
     FM050600 VRB04KT P6SM OVC005
     FM051200 VRB02KT 2SM BR OVC003
     FM051700 VRB04KT P6SM FEW008=



000
FTUS46 KMTR 041720
TAFOAK
TAF
KOAK 041720Z 0418/0524 29006KT P6SM FEW012
     FM042000 30015KT P6SM FEW012
     FM050400 29012KT P6SM SCT010
     FM050600 29009KT P6SM BKN009
     FM050800 29008KT P6SM OVC007
     FM051700 28006KT P6SM SCT010
     FM052000 28012KT P6SM FEW012=



000
FTUS46 KMTR 041720
TAFSJC
TAF
KSJC 041720Z 0418/0518 31004KT P6SM FEW015
     FM042100 31013KT P6SM SKC
     FM050400 30008KT P6SM SKC
     FM051000 VRB04KT P6SM BKN012
     FM051200 VRB03KT P6SM OVC011
     FM051630 VRB04KT P6SM SCT014=



000
FTUS46 KMTR 041720
TAFLVK
TAF
KLVK 041720Z 0418/0518 28006KT P6SM SKC
     FM042100 28016KT P6SM SKC
     FM050400 28007KT P6SM SKC
     FM051200 27007KT P6SM BKN010
     FM051530 26008KT P6SM FEW010=



000
FTUS46 KMTR 041720
TAFSFO
TAF
KSFO 041720Z 0418/0524 30009KT P6SM FEW010
     FM042100 29017G23KT P6SM FEW011
     FM050300 28015KT P6SM FEW011
     FM050900 27006KT P6SM BKN010
     FM051200 27006KT P6SM OVC008
     FM051700 29008KT P6SM FEW008 SCT010
     FM052100 28015KT P6SM FEW012=



000
FTUS46 KMTR 041600 AAB
TAFMRY
TAF AMD
KMRY 041600Z 0416/0512 VRB03KT P6SM SCT005
     FM041700 VRB05KT P6SM FEW008
     FM041900 30007KT P6SM FEW009
     FM042100 26009KT P6SM FEW010
     FM050200 25008KT P6SM BKN009
     FM050600 25004KT P6SM OVC005=



000
FTUS46 KMTR 041552 AAB
TAFSFO
TAF AMD
KSFO 041552Z 0416/0518 29008KT P6SM FEW008 SCT014
     FM041700 30009KT P6SM FEW012
     FM042200 29018G23KT P6SM FEW010
     FM050300 28015KT P6SM FEW008
     FM050800 27006KT P6SM BKN009=



000
FTUS46 KMTR 041500 AAA
TAFSFO
TAF AMD
KSFO 041500Z 0415/0518 29008KT P6SM FEW008 BKN012
     FM041730 30009KT P6SM FEW012
     FM042200 29018G23KT P6SM FEW010
     FM050300 28015KT P6SM FEW008
     FM050800 27006KT P6SM BKN009=



000
FTUS46 KMTR 041339 AAA
TAFMRY
TAF AMD
KMRY 041339Z 0414/0512 VRB03KT 3SM BR OVC003
      TEMPO 0414/0416 1SM BR
     FM041700 VRB04KT P6SM BKN006
     FM041900 30007KT P6SM SCT010
     FM042100 26009KT P6SM FEW010
     FM050200 25008KT P6SM BKN009
     FM050600 25004KT P6SM OVC005=



000
FTUS46 KMTR 041339 AAA
TAFMRY
TAF AMD
KMRY 041339Z 0414/0512 VRB03KT 3SM BR OVC003
      TEMPO 0414/0416 1SM BR
     FM041700 VRB04KT P6SM BKN006
     FM041900 30007KT P6SM SCT010
     FM042100 26009KT P6SM FEW010
     FM050200 25008KT P6SM BKN009
     FM050600 25004KT P6SM OVC005=



000
FTUS46 KMTR 041207 AAA
TAFLVK
TAF AMD
KLVK 041207Z 0412/0512 29007KT P6SM BKN008
     FM041700 29006KT P6SM FEW010
     FM042100 28015KT P6SM SKC
     FM050400 28007KT P6SM SKC=



000
FTUS46 KMTR 041207 AAA
TAFLVK
TAF AMD
KLVK 041207Z 0412/0512 29007KT P6SM BKN008
     FM041700 29006KT P6SM FEW010
     FM042100 28015KT P6SM SKC
     FM050400 28007KT P6SM SKC=



000
FTUS46 KMTR 041120
TAFMRY
TAF
KMRY 041120Z 0412/0512 VRB03KT 5SM BR OVC003
     FM041700 VRB04KT P6SM BKN006
     FM041900 30007KT P6SM SCT010
     FM042100 26009KT P6SM FEW010
     FM050200 25008KT P6SM BKN009
     FM050600 25004KT P6SM OVC005=



000
FTUS46 KMTR 041120
TAFLVK
TAF
KLVK 041120Z 0412/0512 29007KT P6SM SKC
     FM042100 28015KT P6SM SKC
     FM050400 28007KT P6SM SKC=



000
FTUS46 KMTR 041120
TAFSTS
TAF
KSTS 041120Z 0412/0512 00000KT 5SM BR OVC006
     FM041600 VRB02KT P6SM BKN010
     FM041800 19003KT P6SM SKC
     FM042100 18008KT P6SM SKC
     FM050500 16005KT P6SM SKC
     FM050900 VRB03KT P6SM BKN008=



000
FTUS46 KMTR 041120
TAFSFO
TAF
KSFO 041120Z 0412/0518 28006KT P6SM BKN008
     FM041730 30009KT P6SM FEW012
     FM042200 29018G23KT P6SM FEW010
     FM050300 28015KT P6SM FEW008
     FM050800 27006KT P6SM BKN009=



000
FTUS46 KMTR 041120
TAFSJC
TAF
KSJC 041120Z 0412/0512 VRB03KT P6SM OVC011
     FM041700 VRB04KT P6SM SCT013
     FM041900 31013KT P6SM SKC
     FM050400 30008KT P6SM SKC
     FM051000 30005KT P6SM BKN012=



000
FTUS46 KMTR 041120
TAFOAK
TAF
KOAK 041120Z 0412/0518 30009KT P6SM OVC007
     FM041800 29006KT P6SM SCT012
     FM042000 30014KT P6SM FEW012
     FM050400 29010KT P6SM SCT010
     FM050600 29007KT P6SM BKN008=



000
FTUS46 KMTR 041120
TAFSNS
TAF
KSNS 041120Z 0412/0512 VRB03KT 4SM BR OVC004
     FM041700 28005KT P6SM BKN009
     FM041900 28007KT P6SM FEW010
     FM042100 29012KT P6SM SKC
     FM050200 27010KT P6SM OVC009
     FM050600 27005KT P6SM OVC005=



000
FTUS46 KMTR 040950 AAA
TAFSFO
TAF AMD
KSFO 040950Z 0410/0512 28008KT P6SM SCT006
     FM041200 28006KT P6SM BKN005
     FM041700 30009KT P6SM FEW010
     FM042200 29018G23KT P6SM FEW010
     FM050300 28015KT P6SM FEW008
     FM050800 27006KT P6SM BKN009=



000
FTUS46 KMTR 040540
TAFSNS
TAF
KSNS 040540Z 0406/0506 29006KT 5SM BR OVC005
     FM041200 VRB03KT 4SM BR OVC004
     FM041700 28005KT P6SM BKN009
     FM041800 28007KT P6SM FEW010
     FM042000 29012KT P6SM SKC
     FM050200 27010KT P6SM OVC009=



000
FTUS46 KMTR 040540
TAFSJC
TAF
KSJC 040540Z 0406/0506 29005KT P6SM SCT200
     FM041200 VRB03KT P6SM BKN011
     FM041630 VRB04KT P6SM FEW012
     FM042100 31013KT P6SM SKC
     FM050400 30008KT P6SM SKC=



000
FTUS46 KMTR 040540
TAFLVK
TAF
KLVK 040540Z 0406/0506 29007KT P6SM SKC
     FM041300 27005KT P6SM BKN012
     FM041600 27006KT P6SM FEW015
     FM042100 28015KT P6SM SKC
     FM050400 28007KT P6SM SKC=



000
FTUS46 KMTR 040540
TAFOAK
TAF
KOAK 040540Z 0406/0512 30009KT P6SM OVC007
     FM041700 29006KT P6SM SCT009
     FM042100 30014KT P6SM FEW012
     FM050400 29010KT P6SM BKN009=



000
FTUS46 KMTR 040540
TAFMRY
TAF
KMRY 040540Z 0406/0506 VRB03KT P6SM OVC004
     FM041200 VRB03KT 5SM BR OVC003
     FM041700 VRB04KT P6SM BKN006
     FM041900 30007KT P6SM SCT010
     FM042200 26009KT P6SM FEW010
     FM050200 25008KT P6SM BKN009=



000
FTUS46 KMTR 040540
TAFSFO
TAF
KSFO 040540Z 0406/0512 29013KT P6SM FEW007 SCT200
     FM040800 28008KT P6SM BKN009
     FM041700 30009KT P6SM FEW010
     FM042200 29018G23KT P6SM FEW010
     FM050300 28015KT P6SM FEW008
     FM050800 27006KT P6SM BKN009=



000
FTUS46 KMTR 040540
TAFSTS
TAF
KSTS 040540Z 0406/0506 15005KT P6SM FEW008 BKN200
     FM040700 15004KT P6SM BKN008
     FM040900 VRB02KT P6SM OVC006
     FM041200 00000KT 5SM BR OVC004
     FM041600 VRB02KT P6SM BKN007
     FM041800 19003KT P6SM SKC
     FM042100 18008KT P6SM SKC
     FM050500 16005KT P6SM SCT010=



000
FTUS46 KMTR 040341 AAA
TAFSFO
TAF AMD
KSFO 040341Z 0404/0506 29015KT P6SM FEW007
     FM040600 28011KT P6SM BKN010
     FM040900 29008KT P6SM OVC009
     FM041700 30009KT P6SM FEW010
     FM042200 29018G23KT P6SM FEW010
     FM050400 28012KT P6SM SCT010=



000
FTUS46 KMTR 040047 AAA
TAFSNS
TAF AMD
KSNS 040047Z 0401/0424 29013KT P6SM FEW012
     FM040200 29011KT P6SM BKN009
     FM040400 29006KT P6SM OVC007
     FM041200 VRB03KT 4SM BR OVC004
     FM041700 28005KT P6SM BKN009
     FM041800 28007KT P6SM FEW010
     FM042000 29012KT P6SM SKC=



000
FTUS46 KMTR 032331
TAFSNS
TAF
KSNS 032331Z 0400/0424 29013KT P6SM FEW012
     FM040100 29011KT P6SM BKN009
     FM040400 29006KT P6SM OVC007
     FM041200 VRB03KT 4SM BR OVC004
     FM041700 28005KT P6SM BKN009
     FM041800 28007KT P6SM FEW010
     FM042000 29012KT P6SM SKC=



000
FTUS46 KMTR 032331
TAFOAK
TAF
KOAK 032331Z 0400/0506 29014KT P6SM FEW007
     FM040400 30011KT P6SM BKN009
     FM040700 31005KT P6SM OVC008
     FM041700 29006KT P6SM SCT010
     FM042100 30014KT P6SM FEW012
     FM050400 29010KT P6SM BKN010=



000
FTUS46 KMTR 032331
TAFSJC
TAF
KSJC 032331Z 0400/0424 31011KT P6SM FEW050
     FM040400 30006KT P6SM SKC
     FM041200 VRB03KT P6SM BKN011
     FM041630 VRB04KT P6SM FEW012
     FM042100 31012KT P6SM SKC=



000
FTUS46 KMTR 032331
TAFMRY
TAF
KMRY 032331Z 0400/0424 25010KT P6SM FEW010
     FM040200 24007KT P6SM BKN009
     FM040400 23004KT P6SM OVC007
     FM041400 VRB03KT 5SM BR OVC004
     FM041700 VRB04KT P6SM BKN008
     FM041900 30007KT P6SM SCT010=



000
FTUS46 KMTR 032331
TAFSFO
TAF
KSFO 032331Z 0400/0506 29019G24KT P6SM FEW007
     FM040400 28013KT P6SM SCT009
     FM040600 28011KT P6SM BKN010
     FM040900 29008KT P6SM OVC009
     FM041700 30009KT P6SM FEW010
     FM042200 29018G23KT P6SM FEW010
     FM050400 28012KT P6SM SCT010=



000
FTUS46 KMTR 032331
TAFSTS
TAF
KSTS 032331Z 0400/0424 17010KT P6SM FEW150
     FM040400 VRB04KT P6SM FEW012
     FM040600 VRB03KT P6SM BKN010
     FM040900 VRB02KT P6SM OVC008
     FM041200 00000KT 5SM BR OVC004
     FM041600 VRB02KT P6SM BKN007
     FM041800 19003KT P6SM SKC
     FM042100 18008KT P6SM SKC=



000
FTUS46 KMTR 032331
TAFLVK
TAF
KLVK 032331Z 0400/0424 29015KT P6SM SKC
     FM040600 28008KT P6SM SKC
     FM041300 27005KT P6SM BKN012
     FM041600 27006KT P6SM FEW015
     FM042100 28015KT P6SM SKC=



000
FTUS46 KMTR 032101 AAA
TAFSFO
TAF AMD
KSFO 032101Z 0321/0424 30015KT P6SM FEW010
     FM040500 29010KT P6SM FEW012
     FM040900 29007KT P6SM BKN012
     FM041100 29006KT P6SM OVC010
     FM041700 28010KT P6SM FEW012
     FM042100 29014KT P6SM FEW012=



000
FTUS46 KMTR 032101 AAA
TAFSFO
TAF AMD
KSFO 032101Z 0321/0424 30015KT P6SM FEW010
     FM040500 29010KT P6SM FEW012
     FM040900 29007KT P6SM BKN012
     FM041100 29006KT P6SM OVC010
     FM041700 28010KT P6SM FEW012
     FM042100 29014KT P6SM FEW012=



    US Dept of Commerce
    National Oceanic and Atmospheric Administration
    National Weather Service
    1325 East West Highway
    Silver Spring, MD 20910
    Page Author: NWS Internet Services Team
Disclaimer
Information Quality
Credits
Glossary
Privacy Policy
Freedom of Information Act (FOIA)
About Us
Career Opportunities